MZ-0040 weather

Catandica Airport
Catandica, Manica Province, Mozambique

Public forecast

Using degrees Celsius for public forecast. Weather courtesy of forecast.io.

Closest aviation weather report (METAR) to Catandica Airport

Closest report is Chimoio Airport, 62.3 nm (115.3 km) SSE. Retrieved 2020/02/26 09:00 UTC (25 minutes ago):

FQCH 260900Z /////KT 9999 BKN015 24/18 Q1019

Closest aviation forecast (TAF) to Catandica Airport

Forecast is more than 12 hours old.

Closest forecast is Chimoio Airport, 62.3 nm (115.3 km) SSE. Retrieved 2020/02/25 18:00 UTC (15 hours ago):

TAF FQCH 251600Z 2518/2618 10008KT 9999 BKN015 TX26/2613Z TN18/2603Z BECMG 2600/2602 04006KT BECMG 2609/2611 24008KT